createdAt,value
2022-12-18T00:00:45.128Z,43.88
2022-12-18T00:03:43.530Z,49.33
2022-12-18T00:06:41.838Z,43.95
2022-12-18T00:09:40.689Z,46.97
2022-12-18T00:12:38.542Z,48.92
2022-12-18T00:15:37.399Z,52.30
2022-12-18T00:18:35.433Z,50.25
2022-12-18T00:21:34.834Z,38.25
2022-12-18T00:24:35.348Z,48.30
2022-12-18T00:27:33.312Z,48.50
2022-12-18T00:30:31.610Z,51.88
2022-12-18T00:33:30.270Z,45.03
2022-12-18T00:36:31.136Z,50.17
2022-12-18T00:39:29.125Z,52.00
2022-12-18T00:42:42.243Z,51.80
2022-12-18T00:48:38.496Z,47.05
2022-12-18T00:51:36.528Z,51.03
2022-12-18T00:54:34.333Z,55.08
2022-12-18T00:57:32.268Z,54.53
2022-12-18T01:00:30.058Z,51.78
2022-12-18T01:03:28.002Z,56.10
2022-12-18T01:06:26.094Z,51.33
2022-12-18T01:09:24.177Z,45.17
2022-12-18T01:12:22.168Z,50.00
2022-12-18T01:15:21.096Z,52.42
2022-12-18T01:18:19.142Z,53.92
2022-12-18T01:21:18.708Z,55.22
2022-12-18T01:24:16.647Z,62.20
2022-12-18T01:27:14.654Z,50.40
2022-12-18T01:30:13.474Z,60.25
2022-12-18T01:33:11.390Z,57.67
2022-12-18T01:36:10.448Z,59.28
2022-12-18T01:39:12.090Z,55.30
2022-12-18T01:42:16.248Z,60.20
2022-12-18T01:45:32.041Z,70.78
2022-12-18T01:48:29.994Z,66.28
2022-12-18T01:51:32.410Z,62.42
2022-12-18T01:54:30.652Z,48.97
2022-12-18T01:57:29.917Z,56.90
2022-12-18T02:00:29.081Z,54.13
2022-12-18T02:03:27.332Z,45.10
2022-12-18T02:06:34.472Z,55.05
2022-12-18T02:09:38.722Z,60.83
2022-12-18T02:12:50.413Z,49.30
2022-12-18T02:16:04.568Z,60.88
2022-12-18T02:19:10.257Z,60.70
2022-12-18T02:22:36.184Z,55.95
2022-12-18T02:26:12.185Z,59.75
2022-12-18T02:29:17.050Z,50.17
2022-12-18T02:32:23.835Z,56.67
2022-12-18T02:35:26.926Z,61.42
2022-12-18T02:38:27.061Z,57.50
2022-12-18T02:41:26.171Z,63.58
2022-12-18T02:44:23.991Z,59.10
2022-12-18T02:47:29.019Z,56.95
2022-12-18T02:50:37.487Z,57.08
2022-12-18T02:53:46.280Z,63.35
2022-12-18T02:56:52.789Z,62.67
2022-12-18T03:00:06.156Z,57.20
2022-12-18T03:03:13.564Z,62.35
2022-12-18T03:06:26.465Z,49.63
2022-12-18T03:09:33.318Z,53.00
2022-12-18T03:12:40.502Z,48.45
2022-12-18T03:15:45.465Z,55.58
2022-12-18T03:18:49.773Z,56.50
2022-12-18T03:21:53.960Z,49.67
2022-12-18T03:24:54.584Z,55.08
2022-12-18T03:28:00.508Z,52.00
2022-12-18T03:31:07.369Z,56.50
2022-12-18T03:34:16.070Z,63.80
2022-12-18T03:37:14.113Z,51.58
2022-12-18T03:40:13.338Z,54.53
2022-12-18T03:43:27.458Z,51.30
2022-12-18T03:46:39.139Z,59.45
2022-12-18T03:50:00.613Z,51.22
2022-12-18T03:53:36.200Z,53.53
2022-12-18T03:56:39.735Z,60.45
2022-12-18T03:59:40.026Z,62.85
2022-12-18T04:02:42.725Z,61.88
2022-12-18T04:05:42.823Z,60.58
2022-12-18T04:08:41.832Z,58.63
2022-12-18T04:11:39.692Z,56.15
2022-12-18T04:14:38.205Z,59.35
2022-12-18T04:17:36.175Z,55.75
2022-12-18T04:20:34.324Z,53.78
2022-12-18T04:23:32.134Z,64.40
2022-12-18T04:26:31.422Z,55.33
2022-12-18T04:29:29.720Z,54.50
2022-12-18T04:32:28.292Z,56.92
2022-12-18T04:35:26.977Z,51.97
2022-12-18T04:38:25.096Z,55.65
2022-12-18T04:41:23.131Z,52.45
2022-12-18T04:44:21.625Z,57.72
2022-12-18T04:47:22.053Z,63.83
2022-12-18T04:50:20.032Z,55.28
2022-12-18T04:53:17.982Z,55.42
2022-12-18T04:56:17.833Z,58.47
2022-12-18T04:59:22.558Z,60.60
2022-12-18T05:02:22.492Z,65.00
2022-12-18T05:05:21.554Z,67.82
2022-12-18T05:08:19.842Z,68.15
2022-12-18T05:11:22.126Z,79.20
2022-12-18T05:14:20.276Z,66.47
2022-12-18T05:17:18.314Z,74.82
2022-12-18T05:20:16.662Z,82.65
2022-12-18T05:23:17.956Z,103.65
2022-12-18T05:26:23.011Z,100.97
2022-12-18T05:29:21.009Z,86.40
2022-12-18T05:32:19.015Z,79.25
2022-12-18T05:35:19.948Z,88.00
2022-12-18T05:38:17.918Z,92.10
2022-12-18T05:41:16.367Z,113.03
2022-12-18T05:44:14.285Z,123.65
2022-12-18T05:47:12.728Z,120.45
2022-12-18T05:50:10.839Z,89.18
2022-12-18T05:53:09.176Z,61.70
2022-12-18T05:56:14.746Z,67.68
2022-12-18T05:59:15.077Z,57.30
2022-12-18T06:02:13.245Z,77.38
2022-12-18T06:05:12.365Z,91.22
2022-12-18T06:08:11.451Z,94.80
2022-12-18T06:11:09.297Z,72.75
2022-12-18T06:14:08.464Z,85.72
2022-12-18T06:17:06.206Z,76.65
2022-12-18T06:20:05.029Z,110.85
2022-12-18T06:23:02.819Z,110.38
2022-12-18T06:26:00.737Z,93.88
2022-12-18T06:28:58.638Z,87.65
2022-12-18T06:31:57.022Z,89.43
2022-12-18T06:34:58.226Z,105.82
2022-12-18T06:37:56.561Z,93.93
2022-12-18T06:40:55.713Z,93.28
2022-12-18T06:43:59.361Z,91.15
2022-12-18T06:50:02.627Z,95.97
2022-12-18T06:53:07.671Z,111.05
2022-12-18T06:56:10.141Z,110.55
2022-12-18T06:59:08.782Z,97.90
2022-12-18T07:02:06.835Z,105.32
2022-12-18T07:05:10.471Z,109.40
2022-12-18T07:08:09.304Z,115.65
2022-12-18T07:11:09.889Z,113.03
2022-12-18T07:14:10.474Z,119.28
2022-12-18T07:17:09.255Z,102.53
2022-12-18T07:20:07.799Z,112.90
2022-12-18T07:23:06.623Z,115.82
2022-12-18T07:26:10.759Z,115.28
2022-12-18T07:29:08.768Z,121.72
2022-12-18T07:32:07.338Z,113.80
2022-12-18T07:35:05.505Z,113.82
2022-12-18T07:38:03.460Z,89.90
2022-12-18T07:41:03.788Z,96.03
2022-12-18T07:44:06.212Z,109.20
2022-12-18T07:47:07.752Z,99.55
2022-12-18T07:50:10.379Z,103.47
2022-12-18T07:53:08.394Z,104.90
2022-12-18T07:59:28.365Z,115.30
2022-12-18T08:02:26.469Z,124.05
2022-12-18T08:05:26.179Z,119.07
2022-12-18T08:08:24.978Z,125.50
2022-12-18T08:11:23.919Z,140.63
2022-12-18T08:14:31.022Z,132.13
2022-12-18T08:17:29.449Z,130.63
2022-12-18T08:20:27.932Z,128.73
2022-12-18T08:23:28.725Z,123.85
2022-12-18T08:26:35.392Z,128.27
2022-12-18T08:29:33.816Z,126.18
2022-12-18T08:32:44.617Z,135.32
2022-12-18T08:35:45.871Z,112.07
2022-12-18T08:38:44.268Z,147.55
2022-12-18T08:41:42.124Z,139.90
2022-12-18T08:44:40.150Z,136.48
2022-12-18T08:47:38.138Z,168.35
2022-12-18T08:50:38.634Z,186.55
2022-12-18T08:53:37.056Z,191.40
2022-12-18T08:56:36.670Z,203.80
2022-12-18T08:59:34.501Z,200.38
2022-12-18T09:02:44.144Z,187.95
2022-12-18T09:05:42.167Z,193.70
2022-12-18T09:08:40.495Z,180.10
2022-12-18T09:11:38.620Z,177.98
2022-12-18T09:14:37.201Z,180.40
2022-12-18T09:17:35.184Z,175.65
2022-12-18T09:20:33.670Z,155.95
2022-12-18T09:23:36.764Z,152.05
2022-12-18T09:26:34.672Z,151.10
2022-12-18T09:29:32.576Z,178.85
2022-12-18T09:32:30.495Z,151.23
2022-12-18T09:35:29.377Z,185.65
2022-12-18T09:38:27.254Z,177.50
2022-12-18T09:41:43.624Z,160.02
2022-12-18T09:44:48.822Z,192.75
2022-12-18T09:47:48.643Z,209.40
2022-12-18T09:50:48.276Z,219.02
2022-12-18T09:53:53.877Z,223.50
2022-12-18T09:56:52.373Z,225.23
2022-12-18T09:59:56.906Z,226.45
2022-12-18T10:03:01.546Z,241.23
2022-12-18T10:06:20.199Z,242.63
2022-12-18T10:09:37.939Z,238.07
2022-12-18T10:12:52.456Z,218.25
2022-12-18T10:16:16.934Z,222.10
2022-12-18T10:19:30.146Z,214.15
2022-12-18T10:22:47.922Z,241.93
2022-12-18T10:26:09.628Z,253.75
2022-12-18T10:29:18.332Z,217.10
2022-12-18T10:32:20.789Z,220.43
2022-12-18T10:35:23.508Z,206.15
2022-12-18T10:38:28.176Z,220.50
2022-12-18T10:41:29.391Z,219.68
2022-12-18T10:44:28.444Z,259.65
2022-12-18T10:47:26.511Z,229.48
2022-12-18T10:51:09.803Z,241.88
2022-12-18T10:54:02.678Z,227.52
2022-12-18T10:57:31.346Z,204.95
2022-12-18T11:00:32.093Z,197.65
2022-12-18T11:03:37.735Z,208.20
2022-12-18T11:06:35.723Z,206.57
2022-12-18T11:09:38.085Z,211.25
2022-12-18T11:12:36.083Z,205.02
2022-12-18T11:15:35.515Z,192.02
2022-12-18T11:18:38.408Z,240.77
2022-12-18T11:21:42.839Z,213.85
2022-12-18T11:24:41.581Z,226.10
2022-12-18T11:27:41.923Z,220.80
2022-12-18T11:30:41.238Z,219.80
2022-12-18T11:33:58.354Z,280.10
2022-12-18T11:37:04.874Z,265.23
2022-12-18T11:40:09.704Z,260.33
2022-12-18T11:43:18.903Z,231.57
2022-12-18T11:46:24.848Z,252.27
2022-12-18T11:49:31.394Z,221.65
2022-12-18T11:52:36.145Z,213.60
2022-12-18T11:56:09.129Z,198.85
2022-12-18T11:59:34.425Z,221.55
2022-12-18T12:02:49.176Z,207.77
2022-12-18T12:06:13.221Z,199.27
2022-12-18T12:09:24.258Z,216.23
2022-12-18T12:12:48.883Z,212.85
2022-12-18T12:16:09.833Z,217.15
2022-12-18T12:19:29.470Z,209.90
2022-12-18T12:22:54.750Z,221.60
2022-12-18T12:26:05.174Z,229.55
2022-12-18T12:29:22.865Z,251.82
2022-12-18T12:32:47.655Z,239.50
2022-12-18T12:36:07.933Z,242.10
2022-12-18T12:39:12.991Z,236.57
2022-12-18T12:42:48.245Z,237.60
2022-12-18T12:45:52.629Z,256.80
2022-12-18T12:48:56.522Z,249.10
2022-12-18T12:54:58.623Z,197.45
2022-12-18T12:58:07.431Z,212.98
2022-12-18T13:01:27.583Z,221.38
2022-12-18T13:04:56.076Z,238.20
2022-12-18T13:08:10.859Z,215.98
2022-12-18T13:11:46.625Z,195.75
2022-12-18T13:14:45.141Z,185.55
2022-12-18T13:17:43.007Z,193.23
2022-12-18T13:20:46.625Z,200.05
2022-12-18T13:23:49.336Z,196.05
2022-12-18T13:26:47.449Z,187.32
2022-12-18T13:29:47.997Z,162.15
2022-12-18T13:32:46.402Z,166.25
2022-12-18T13:36:11.213Z,154.43
2022-12-18T13:39:28.938Z,158.50
2022-12-18T13:42:55.672Z,169.75
2022-12-18T13:46:22.291Z,156.60
2022-12-18T13:49:39.199Z,150.80
2022-12-18T13:52:40.046Z,159.23
2022-12-18T13:55:38.254Z,162.70
2022-12-18T13:58:36.472Z,153.65
2022-12-18T14:01:34.516Z,149.02
2022-12-18T14:04:35.348Z,145.55
2022-12-18T14:07:35.912Z,155.90
2022-12-18T14:10:49.346Z,122.85
2022-12-18T14:13:48.696Z,141.45
2022-12-18T14:16:49.084Z,139.93
2022-12-18T14:19:50.164Z,141.65
2022-12-18T14:22:50.315Z,146.32
2022-12-18T14:25:48.650Z,139.70
2022-12-18T14:28:46.961Z,149.02
2022-12-18T14:31:44.727Z,139.38
2022-12-18T14:34:42.972Z,138.10
2022-12-18T14:37:41.013Z,143.57
2022-12-18T14:40:39.640Z,145.48
2022-12-18T14:43:40.831Z,140.55
2022-12-18T14:46:40.975Z,146.50
2022-12-18T14:49:39.742Z,148.65
2022-12-18T14:52:37.925Z,141.38
2022-12-18T14:55:36.181Z,127.35
2022-12-18T14:58:34.091Z,123.22
2022-12-18T15:01:38.470Z,139.63
2022-12-18T15:04:41.662Z,140.35
2022-12-18T15:07:45.901Z,137.07
2022-12-18T15:10:50.107Z,150.18
2022-12-18T15:13:48.056Z,139.88
2022-12-18T15:16:46.317Z,149.65
2022-12-18T15:19:46.275Z,146.75
2022-12-18T15:22:44.311Z,144.00
2022-12-18T15:25:42.308Z,142.07
2022-12-18T15:28:48.513Z,141.10
2022-12-18T15:31:46.924Z,149.10
2022-12-18T15:34:45.127Z,160.32
2022-12-18T15:37:46.596Z,139.10
2022-12-18T15:40:47.899Z,136.50
2022-12-18T15:43:46.459Z,131.18
2022-12-18T15:46:45.015Z,143.82
2022-12-18T15:49:42.963Z,150.48
2022-12-18T15:52:47.799Z,142.20
2022-12-18T15:56:01.316Z,156.18
2022-12-18T15:58:59.972Z,142.90
2022-12-18T16:01:58.127Z,151.98
2022-12-18T16:04:56.579Z,142.30
2022-12-18T16:08:04.178Z,153.82
2022-12-18T16:11:04.336Z,171.70
2022-12-18T16:14:02.168Z,162.07
2022-12-18T16:17:03.531Z,158.45
2022-12-18T16:20:01.389Z,175.07
2022-12-18T16:22:59.473Z,177.68
2022-12-18T16:25:57.252Z,178.32
2022-12-18T16:28:55.225Z,173.27
2022-12-18T16:31:53.551Z,155.63
2022-12-18T16:34:52.014Z,139.80
2022-12-18T16:37:49.837Z,164.20
2022-12-18T16:41:03.064Z,150.55
2022-12-18T16:44:01.840Z,137.30
2022-12-18T16:47:03.446Z,146.33
2022-12-18T16:50:01.692Z,140.03
2022-12-18T16:52:59.644Z,136.13
2022-12-18T16:55:58.011Z,145.40
2022-12-18T16:58:58.654Z,127.43
2022-12-18T17:01:58.402Z,120.33
2022-12-18T17:04:58.984Z,143.43
2022-12-18T17:07:57.214Z,151.10
2022-12-18T17:10:55.681Z,151.80
2022-12-18T17:13:54.393Z,136.13
2022-12-18T17:17:19.624Z,127.47
2022-12-18T17:20:12.519Z,130.93
2022-12-18T17:23:10.439Z,140.50
2022-12-18T17:26:10.683Z,100.03
2022-12-18T17:29:09.372Z,129.27
2022-12-18T17:32:07.454Z,121.75
2022-12-18T17:35:07.515Z,134.93
2022-12-18T17:38:05.739Z,132.48
2022-12-18T17:41:06.751Z,108.88
2022-12-18T17:44:07.170Z,129.13
2022-12-18T17:47:07.230Z,151.25
2022-12-18T17:50:05.588Z,161.75
2022-12-18T17:53:04.190Z,192.67
2022-12-18T17:56:03.055Z,157.40
2022-12-18T17:59:01.354Z,167.17
2022-12-18T18:02:00.284Z,163.55
2022-12-18T18:04:59.061Z,162.80
2022-12-18T18:07:57.834Z,148.02
2022-12-18T18:11:17.329Z,177.65
2022-12-18T18:14:20.120Z,159.23
2022-12-18T18:17:18.878Z,204.60
2022-12-18T18:20:22.353Z,185.50
2022-12-18T18:23:20.759Z,197.93
2022-12-18T18:26:18.880Z,195.37
2022-12-18T18:29:19.942Z,181.20
2022-12-18T18:32:18.317Z,192.77
2022-12-18T18:35:45.016Z,177.40
2022-12-18T18:38:34.291Z,158.40
2022-12-18T18:41:32.614Z,163.33
2022-12-18T18:44:30.540Z,155.77
2022-12-18T18:47:31.329Z,156.57
2022-12-18T18:50:29.258Z,142.70
2022-12-18T18:53:27.458Z,141.77
2022-12-18T18:56:56.718Z,131.97
2022-12-18T18:59:47.435Z,106.40
2022-12-18T19:02:45.336Z,118.97
2022-12-18T19:05:47.509Z,101.93
2022-12-18T19:08:47.122Z,90.20
2022-12-18T19:12:00.776Z,72.43
2022-12-18T19:14:58.763Z,82.60
2022-12-18T19:17:56.735Z,77.80
2022-12-18T19:20:59.389Z,70.73
2022-12-18T19:23:57.362Z,59.90
2022-12-18T19:26:56.408Z,66.43
2022-12-18T19:29:56.140Z,78.53
2022-12-18T19:32:54.120Z,75.33
2022-12-18T19:35:53.871Z,70.03
2022-12-18T19:38:54.906Z,75.07
2022-12-18T19:41:53.231Z,75.37
2022-12-18T19:44:52.131Z,59.77
2022-12-18T19:47:50.081Z,52.73
2022-12-18T19:50:48.474Z,48.35
2022-12-18T19:53:46.745Z,48.30
2022-12-18T19:56:45.135Z,53.47
2022-12-18T19:59:43.156Z,55.90
2022-12-18T20:02:42.565Z,69.65
2022-12-18T20:05:40.780Z,59.33
2022-12-18T20:08:47.785Z,53.13
2022-12-18T20:11:46.146Z,63.13
2022-12-18T20:14:44.093Z,66.40
2022-12-18T20:17:43.105Z,67.40
2022-12-18T20:20:41.221Z,55.60
2022-12-18T20:23:40.014Z,57.97
2022-12-18T20:26:38.097Z,62.40
2022-12-18T20:29:36.502Z,54.70
2022-12-18T20:32:37.344Z,49.90
2022-12-18T20:35:36.022Z,56.47
2022-12-18T20:38:35.659Z,51.80
2022-12-18T20:41:37.880Z,63.63
2022-12-18T20:44:37.156Z,63.75
2022-12-18T20:47:35.158Z,60.83
2022-12-18T20:50:33.143Z,64.07
2022-12-18T20:53:31.468Z,67.40
2022-12-18T20:56:31.422Z,67.75
2022-12-18T20:59:29.641Z,50.95
2022-12-18T21:02:27.714Z,59.47
2022-12-18T21:05:26.275Z,46.90
2022-12-18T21:08:24.119Z,33.43
2022-12-18T21:11:47.056Z,44.50
2022-12-18T21:14:45.781Z,43.65
2022-12-18T21:17:45.377Z,36.40
2022-12-18T21:20:43.962Z,45.78
2022-12-18T21:23:41.905Z,46.88
2022-12-18T21:26:45.466Z,47.23
2022-12-18T21:29:44.267Z,35.23
2022-12-18T21:32:42.546Z,32.85
2022-12-18T21:35:40.533Z,35.00
2022-12-18T21:38:38.547Z,38.10
2022-12-18T21:41:52.133Z,36.40
2022-12-18T21:44:53.173Z,42.80
2022-12-18T21:47:51.304Z,44.03
2022-12-18T21:50:49.121Z,47.65
2022-12-18T21:53:47.665Z,23.85
2022-12-18T21:56:51.571Z,27.93
2022-12-18T21:59:51.156Z,30.40
2022-12-18T22:03:13.380Z,26.90
2022-12-18T22:06:09.817Z,30.92
2022-12-18T22:09:07.907Z,37.78
2022-12-18T22:12:06.349Z,40.42
2022-12-18T22:15:05.883Z,38.20
2022-12-18T22:18:03.920Z,50.55
2022-12-18T22:21:04.965Z,49.43
2022-12-18T22:24:06.427Z,46.93
2022-12-18T22:27:05.318Z,52.50
2022-12-18T22:30:04.730Z,31.67
2022-12-18T22:33:03.007Z,49.42
2022-12-18T22:36:07.378Z,44.23
2022-12-18T22:39:10.662Z,47.43
2022-12-18T22:42:09.800Z,55.22
2022-12-18T22:45:08.790Z,59.72
2022-12-18T22:48:07.232Z,54.73
2022-12-18T22:51:05.864Z,49.55
2022-12-18T22:54:03.989Z,35.67
2022-12-18T22:57:01.989Z,30.37
2022-12-18T23:00:00.504Z,28.53
2022-12-18T23:03:00.999Z,21.15
2022-12-18T23:06:05.419Z,17.77
2022-12-18T23:09:03.318Z,18.70
2022-12-18T23:12:02.021Z,17.87
2022-12-18T23:14:59.919Z,17.97
2022-12-18T23:17:59.365Z,16.83
2022-12-18T23:20:57.202Z,19.50
2022-12-18T23:23:56.246Z,19.47
2022-12-18T23:26:54.335Z,17.40
2022-12-18T23:29:52.293Z,24.80
2022-12-18T23:32:52.089Z,23.40
2022-12-18T23:35:50.110Z,21.45
2022-12-18T23:38:51.873Z,22.80
2022-12-18T23:41:49.844Z,26.40
2022-12-18T23:44:48.049Z,23.80
2022-12-18T23:47:47.037Z,29.23
2022-12-18T23:50:48.838Z,26.40
2022-12-18T23:53:47.050Z,29.77
2022-12-18T23:56:44.947Z,37.80
2022-12-18T23:59:42.981Z,30.27
